createdAt,value
2019-06-20T00:01:39.009Z,22.16
2019-06-20T00:04:07.431Z,22.14
2019-06-20T00:06:35.871Z,22.00
2019-06-20T00:09:06.051Z,22.23
2019-06-20T00:11:34.609Z,22.04
2019-06-20T00:14:03.137Z,22.09
2019-06-20T00:16:31.595Z,22.22
2019-06-20T00:19:00.021Z,21.98
2019-06-20T00:21:28.449Z,21.95
2019-06-20T00:23:56.897Z,22.12
2019-06-20T00:26:25.335Z,21.89
2019-06-20T00:28:53.765Z,21.99
2019-06-20T00:31:22.412Z,21.95
2019-06-20T00:33:50.828Z,22.03
2019-06-20T00:36:19.443Z,22.25
2019-06-20T00:38:48.014Z,21.89
2019-06-20T00:41:16.436Z,21.94
2019-06-20T00:43:44.937Z,21.83
2019-06-20T00:46:13.531Z,21.75
2019-06-20T00:48:41.957Z,21.73
2019-06-20T00:51:10.458Z,21.86
2019-06-20T00:53:39.010Z,21.65
2019-06-20T00:56:07.602Z,21.58
2019-06-20T00:58:36.041Z,21.57
2019-06-20T01:01:04.563Z,21.54
2019-06-20T01:03:32.988Z,21.64
2019-06-20T01:06:01.581Z,21.55
2019-06-20T01:08:30.090Z,21.62
2019-06-20T01:10:58.530Z,21.83
2019-06-20T01:13:33.418Z,21.45
2019-06-20T01:15:57.254Z,21.45
2019-06-20T01:18:25.650Z,21.56
2019-06-20T01:20:54.254Z,21.49
2019-06-20T01:23:22.704Z,21.55
2019-06-20T01:25:51.769Z,21.42
2019-06-20T01:28:20.197Z,21.42
2019-06-20T01:30:48.971Z,21.07
2019-06-20T01:33:17.400Z,20.75
2019-06-20T01:35:47.213Z,20.64
2019-06-20T01:38:15.798Z,20.52
2019-06-20T01:40:44.529Z,20.42
2019-06-20T01:43:13.073Z,20.62
2019-06-20T01:45:41.692Z,20.89
2019-06-20T01:48:10.133Z,20.92
2019-06-20T01:50:38.631Z,21.24
2019-06-20T01:53:07.184Z,21.11
2019-06-20T01:55:35.661Z,21.04
2019-06-20T01:58:04.154Z,21.15
2019-06-20T02:00:50.333Z,21.05
2019-06-20T02:03:20.394Z,20.93
2019-06-20T02:05:48.957Z,20.91
2019-06-20T02:08:17.790Z,20.78
2019-06-20T02:10:47.262Z,20.68
2019-06-20T02:13:15.767Z,20.54
2019-06-20T02:15:44.330Z,20.12
2019-06-20T02:18:12.892Z,19.91
2019-06-20T02:20:56.128Z,20.12
2019-06-20T02:23:24.786Z,20.00
2019-06-20T02:25:53.256Z,20.11
2019-06-20T02:28:22.688Z,19.98
2019-06-20T02:30:51.518Z,20.09
2019-06-20T02:33:20.019Z,20.09
2019-06-20T02:35:48.806Z,19.81
2019-06-20T02:38:17.245Z,19.74
2019-06-20T02:40:45.730Z,19.71
2019-06-20T02:43:14.305Z,19.66
2019-06-20T02:45:42.997Z,19.56
2019-06-20T02:48:11.546Z,19.66
2019-06-20T02:50:40.072Z,19.98
2019-06-20T02:53:08.637Z,20.35
2019-06-20T02:55:37.131Z,20.40
2019-06-20T02:58:05.855Z,20.23
2019-06-20T03:00:55.646Z,20.36
2019-06-20T03:03:24.271Z,20.46
2019-06-20T03:05:53.874Z,20.28
2019-06-20T03:08:22.544Z,20.38
2019-06-20T03:10:51.065Z,20.27
2019-06-20T03:13:19.667Z,20.30
2019-06-20T03:15:50.087Z,20.30
2019-06-20T03:18:18.410Z,20.22
2019-06-20T03:20:46.898Z,20.34
2019-06-20T03:23:15.492Z,20.36
2019-06-20T03:25:44.014Z,20.41
2019-06-20T03:28:12.518Z,20.14
2019-06-20T03:30:40.943Z,20.17
2019-06-20T03:33:09.440Z,20.06
2019-06-20T03:35:37.862Z,20.08
2019-06-20T03:38:06.427Z,19.98
2019-06-20T03:40:34.946Z,20.08
2019-06-20T03:43:03.370Z,19.79
2019-06-20T03:45:31.794Z,19.61
2019-06-20T03:48:00.425Z,19.33
2019-06-20T03:50:28.924Z,18.83
2019-06-20T03:53:02.871Z,18.76
2019-06-20T03:55:34.567Z,18.62
2019-06-20T03:58:03.267Z,18.62
2019-06-20T04:00:35.884Z,18.57
2019-06-20T04:03:05.857Z,18.57
2019-06-20T04:05:35.217Z,18.45
2019-06-20T04:08:03.700Z,18.41
2019-06-20T04:10:32.221Z,18.45
2019-06-20T04:13:00.646Z,18.74
2019-06-20T04:15:29.262Z,19.01
2019-06-20T04:17:57.887Z,19.44
2019-06-20T04:20:26.480Z,19.48
2019-06-20T04:22:54.913Z,19.68
2019-06-20T04:25:23.416Z,19.87
2019-06-20T04:27:51.975Z,19.75
2019-06-20T04:30:20.587Z,19.77
2019-06-20T04:32:49.080Z,20.22
2019-06-20T04:35:17.523Z,20.22
2019-06-20T04:37:46.064Z,20.19
2019-06-20T04:40:15.918Z,20.00
2019-06-20T04:42:44.410Z,20.09
2019-06-20T04:45:14.938Z,20.65
2019-06-20T04:47:43.394Z,21.73
2019-06-20T04:50:11.884Z,22.61
2019-06-20T04:52:40.334Z,22.70
2019-06-20T04:55:08.839Z,22.81
2019-06-20T04:57:37.266Z,22.95
2019-06-20T05:00:07.634Z,23.31
2019-06-20T05:02:36.269Z,23.93
2019-06-20T05:05:06.222Z,24.16
2019-06-20T05:07:34.760Z,24.32
2019-06-20T05:10:04.645Z,24.21
2019-06-20T05:12:33.148Z,23.15
2019-06-20T05:15:01.659Z,22.89
2019-06-20T05:17:30.437Z,22.07
2019-06-20T05:19:58.876Z,21.85
2019-06-20T05:22:27.311Z,21.94
2019-06-20T05:24:55.893Z,22.06
2019-06-20T05:27:24.399Z,22.54
2019-06-20T05:29:52.813Z,22.52
2019-06-20T05:32:21.492Z,22.21
2019-06-20T05:34:49.989Z,22.02
2019-06-20T05:37:18.432Z,21.88
2019-06-20T05:39:46.917Z,22.12
2019-06-20T05:42:15.334Z,21.98
2019-06-20T05:44:43.765Z,22.54
2019-06-20T05:47:14.053Z,22.78
2019-06-20T05:49:42.664Z,22.71
2019-06-20T05:52:11.110Z,23.06
2019-06-20T05:54:39.886Z,23.01
2019-06-20T05:57:08.310Z,22.81
2019-06-20T05:59:36.737Z,22.94
2019-06-20T06:02:05.354Z,23.12
2019-06-20T06:04:33.843Z,23.54
2019-06-20T06:07:02.378Z,23.52
2019-06-20T06:09:31.166Z,23.22
2019-06-20T06:11:59.654Z,23.35
2019-06-20T06:14:28.074Z,23.43
2019-06-20T06:16:56.557Z,23.49
2019-06-20T06:19:25.006Z,23.48
2019-06-20T06:21:53.802Z,23.30
2019-06-20T06:24:22.397Z,23.00
2019-06-20T06:26:51.092Z,23.09
2019-06-20T06:29:19.519Z,23.06
2019-06-20T06:31:48.035Z,23.10
2019-06-20T06:34:16.442Z,23.69
2019-06-20T06:36:45.056Z,23.79
2019-06-20T06:39:13.512Z,24.38
2019-06-20T06:41:41.945Z,24.26
2019-06-20T06:44:10.492Z,24.41
2019-06-20T06:46:45.910Z,24.01
2019-06-20T06:49:09.163Z,23.70
2019-06-20T06:51:38.348Z,23.53
2019-06-20T06:54:07.032Z,23.68
2019-06-20T06:56:35.543Z,23.60
2019-06-20T06:59:04.334Z,24.04
2019-06-20T07:01:32.911Z,24.45
2019-06-20T07:04:01.437Z,24.06
2019-06-20T07:06:29.908Z,24.09
2019-06-20T07:08:58.413Z,24.02
2019-06-20T07:11:26.894Z,24.10
2019-06-20T07:13:55.337Z,23.83
2019-06-20T07:16:23.854Z,23.86
2019-06-20T07:18:53.383Z,23.80
2019-06-20T07:21:22.359Z,23.83
2019-06-20T07:23:50.885Z,23.69
2019-06-20T07:26:19.317Z,23.60
2019-06-20T07:28:51.334Z,24.09
2019-06-20T07:31:17.929Z,23.80
2019-06-20T07:33:46.424Z,24.15
2019-06-20T07:36:14.859Z,24.13
2019-06-20T07:38:43.336Z,23.94
2019-06-20T07:41:11.789Z,24.03
2019-06-20T07:43:40.173Z,23.74
2019-06-20T07:46:08.692Z,23.61
2019-06-20T07:48:37.122Z,23.94
2019-06-20T07:51:05.617Z,24.21
2019-06-20T07:53:34.192Z,23.89
2019-06-20T07:56:02.638Z,24.12
2019-06-20T07:58:31.064Z,24.15
2019-06-20T08:00:59.515Z,23.93
2019-06-20T08:03:28.083Z,24.05
2019-06-20T08:05:56.547Z,24.06
2019-06-20T08:08:25.166Z,23.96
2019-06-20T08:10:53.595Z,23.88
2019-06-20T08:13:22.114Z,24.35
2019-06-20T08:15:51.089Z,24.11
2019-06-20T08:18:19.530Z,23.65
2019-06-20T08:20:48.045Z,23.73
2019-06-20T08:23:16.547Z,24.02
2019-06-20T08:25:45.049Z,23.91
2019-06-20T08:28:13.478Z,24.14
2019-06-20T08:30:42.125Z,24.48
2019-06-20T08:33:12.251Z,24.48
2019-06-20T08:35:41.005Z,24.28
2019-06-20T08:38:09.516Z,24.43
2019-06-20T08:40:41.326Z,24.22
2019-06-20T08:43:10.294Z,24.45
2019-06-20T08:45:39.983Z,24.06
2019-06-20T08:48:08.553Z,24.08
2019-06-20T08:50:37.162Z,24.16
2019-06-20T08:53:06.359Z,24.14
2019-06-20T08:55:35.723Z,24.69
2019-06-20T08:58:05.591Z,25.13
2019-06-20T09:00:36.823Z,24.84
2019-06-20T09:03:06.601Z,24.95
2019-06-20T09:05:35.580Z,25.49
2019-06-20T09:08:05.545Z,26.03
2019-06-20T09:10:39.749Z,26.26
2019-06-20T09:13:09.144Z,26.60
2019-06-20T09:15:37.912Z,26.65
2019-06-20T09:18:07.011Z,26.24
2019-06-20T09:20:36.145Z,26.52
2019-06-20T09:23:05.787Z,26.23
2019-06-20T09:25:34.379Z,26.01
2019-06-20T09:28:03.192Z,26.06
2019-06-20T09:30:31.776Z,26.20
2019-06-20T09:33:00.275Z,26.48
2019-06-20T09:35:28.806Z,26.31
2019-06-20T09:37:57.241Z,25.89
2019-06-20T09:40:26.003Z,25.62
2019-06-20T09:42:54.545Z,25.93
2019-06-20T09:45:23.388Z,25.34
2019-06-20T09:47:52.249Z,25.84
2019-06-20T09:50:21.803Z,25.32
2019-06-20T09:52:51.599Z,25.55
2019-06-20T09:55:20.545Z,25.42
2019-06-20T09:57:50.484Z,25.59
2019-06-20T10:00:25.673Z,25.77
2019-06-20T10:02:55.880Z,25.52
2019-06-20T10:05:24.768Z,25.66
2019-06-20T10:07:54.518Z,25.80
2019-06-20T10:10:26.239Z,26.04
2019-06-20T10:12:55.787Z,25.97
2019-06-20T10:15:27.053Z,25.63
2019-06-20T10:17:55.909Z,26.15
2019-06-20T10:20:25.044Z,26.08
2019-06-20T10:22:54.361Z,26.04
2019-06-20T10:25:23.635Z,26.22
2019-06-20T10:27:53.568Z,26.22
2019-06-20T10:30:24.283Z,26.64
2019-06-20T10:32:53.327Z,26.61
2019-06-20T10:35:22.778Z,26.58
2019-06-20T10:37:52.722Z,27.24
2019-06-20T10:40:23.464Z,26.83
2019-06-20T10:42:52.981Z,26.89
2019-06-20T10:45:23.998Z,26.71
2019-06-20T10:47:53.106Z,27.08
2019-06-20T10:50:22.429Z,26.75
2019-06-20T10:52:51.889Z,26.73
2019-06-20T10:55:21.217Z,26.71
2019-06-20T10:57:50.088Z,26.74
2019-06-20T11:00:30.903Z,27.23
2019-06-20T11:02:53.553Z,27.06
2019-06-20T11:05:22.402Z,27.96
2019-06-20T11:07:51.167Z,27.77
2019-06-20T11:10:20.369Z,27.73
2019-06-20T11:12:54.918Z,27.88
2019-06-20T11:15:20.600Z,27.29
2019-06-20T11:17:49.126Z,27.33
2019-06-20T11:20:18.299Z,27.37
2019-06-20T11:22:47.830Z,26.95
2019-06-20T11:25:19.264Z,27.09
2019-06-20T11:27:47.807Z,27.42
2019-06-20T11:30:19.686Z,26.98
2019-06-20T11:32:49.166Z,26.67
2019-06-20T11:35:18.338Z,26.65
2019-06-20T11:37:47.227Z,26.73
2019-06-20T11:40:16.887Z,26.88
2019-06-20T11:42:46.769Z,27.15
2019-06-20T11:45:15.911Z,26.97
2019-06-20T11:47:44.525Z,26.89
2019-06-20T11:50:13.491Z,26.78
2019-06-20T11:52:44.296Z,26.76
2019-06-20T11:55:12.539Z,26.66
2019-06-20T11:57:41.107Z,26.84
2019-06-20T12:00:09.753Z,27.03
2019-06-20T12:02:40.477Z,27.51
2019-06-20T12:05:09.866Z,26.95
2019-06-20T12:07:39.625Z,27.09
2019-06-20T12:10:09.657Z,27.06
2019-06-20T12:12:39.566Z,27.23
2019-06-20T12:15:09.436Z,27.22
2019-06-20T12:17:41.026Z,27.10
2019-06-20T12:20:09.946Z,27.38
2019-06-20T12:22:39.949Z,27.32
2019-06-20T12:25:09.819Z,27.31
2019-06-20T12:27:38.806Z,27.55
2019-06-20T12:30:09.126Z,27.36
2019-06-20T12:32:37.594Z,27.52
2019-06-20T12:35:06.562Z,27.28
2019-06-20T12:37:35.072Z,27.13
2019-06-20T12:40:05.204Z,26.86
2019-06-20T12:42:33.673Z,26.62
2019-06-20T12:45:02.121Z,26.96
2019-06-20T12:47:30.576Z,26.70
2019-06-20T12:49:59.046Z,26.96
2019-06-20T12:52:27.573Z,26.65
2019-06-20T12:54:56.051Z,26.69
2019-06-20T12:57:24.621Z,26.68
2019-06-20T12:59:53.313Z,26.83
2019-06-20T13:02:21.840Z,26.99
2019-06-20T13:04:50.622Z,26.91
2019-06-20T13:07:19.127Z,26.64
2019-06-20T13:09:48.341Z,26.47
2019-06-20T13:12:16.899Z,26.60
2019-06-20T13:14:45.628Z,27.07
2019-06-20T13:17:14.283Z,27.01
2019-06-20T13:19:44.119Z,27.47
2019-06-20T13:22:12.917Z,27.35
2019-06-20T13:24:42.731Z,27.50
2019-06-20T13:27:11.258Z,27.62
2019-06-20T13:29:40.796Z,27.49
2019-06-20T13:32:09.408Z,27.70
2019-06-20T13:34:39.872Z,27.57
2019-06-20T13:37:08.641Z,27.84
2019-06-20T13:39:38.506Z,28.20
2019-06-20T13:42:07.359Z,28.28
2019-06-20T13:44:35.779Z,27.82
2019-06-20T13:47:04.375Z,27.99
2019-06-20T13:49:32.952Z,27.37
2019-06-20T13:52:01.387Z,27.10
2019-06-20T13:54:29.958Z,27.15
2019-06-20T13:56:58.408Z,26.93
2019-06-20T13:59:26.907Z,27.17
2019-06-20T14:02:06.219Z,27.01
2019-06-20T14:04:25.584Z,25.10
2019-06-20T14:06:54.175Z,23.61
2019-06-20T14:09:22.702Z,23.28
2019-06-20T14:11:51.429Z,23.24
2019-06-20T14:14:20.042Z,23.62
2019-06-20T14:16:48.641Z,23.52
2019-06-20T14:19:17.241Z,22.91
2019-06-20T14:21:45.737Z,23.07
2019-06-20T14:24:14.222Z,23.66
2019-06-20T14:26:44.790Z,24.18
2019-06-20T14:29:12.979Z,24.40
2019-06-20T14:31:42.626Z,24.58
2019-06-20T14:34:11.798Z,24.89
2019-06-20T14:36:40.220Z,25.22
2019-06-20T14:39:08.950Z,24.94
2019-06-20T14:41:37.451Z,24.55
2019-06-20T14:44:06.045Z,24.99
2019-06-20T14:46:34.544Z,25.10
2019-06-20T14:49:02.975Z,25.20
2019-06-20T14:51:31.473Z,25.96
2019-06-20T14:54:01.612Z,25.86
2019-06-20T14:56:30.059Z,25.99
2019-06-20T14:58:58.517Z,26.83
2019-06-20T15:01:26.990Z,26.94
2019-06-20T15:03:56.033Z,26.97
2019-06-20T15:06:24.657Z,27.04
2019-06-20T15:09:01.249Z,27.14
2019-06-20T15:11:23.281Z,27.39
2019-06-20T15:13:51.720Z,27.34
2019-06-20T15:16:20.250Z,27.36
2019-06-20T15:18:51.978Z,27.36
2019-06-20T15:21:18.846Z,27.81
2019-06-20T15:23:49.095Z,27.33
2019-06-20T15:26:17.474Z,26.88
2019-06-20T15:28:47.510Z,26.95
2019-06-20T15:31:16.122Z,27.18
2019-06-20T15:33:44.637Z,27.63
2019-06-20T15:36:13.136Z,27.43
2019-06-20T15:38:41.609Z,27.33
2019-06-20T15:41:12.454Z,26.96
2019-06-20T15:43:40.282Z,27.22
2019-06-20T15:46:08.885Z,26.95
2019-06-20T15:48:37.335Z,27.32
2019-06-20T15:51:05.762Z,27.51
2019-06-20T15:53:34.288Z,27.61
2019-06-20T15:56:02.709Z,27.07
2019-06-20T15:58:31.157Z,27.04
2019-06-20T16:00:59.621Z,27.08
2019-06-20T16:03:28.065Z,27.16
2019-06-20T16:05:56.571Z,27.13
2019-06-20T16:08:25.111Z,27.28
2019-06-20T16:10:53.603Z,27.16
2019-06-20T16:13:22.042Z,27.38
2019-06-20T16:15:51.236Z,26.95
2019-06-20T16:18:19.682Z,27.25
2019-06-20T16:20:48.117Z,27.29
2019-06-20T16:23:16.578Z,27.10
2019-06-20T16:25:45.075Z,26.95
2019-06-20T16:28:13.514Z,26.78
2019-06-20T16:30:42.206Z,26.85
2019-06-20T16:33:24.089Z,26.81
2019-06-20T16:35:40.827Z,26.36
2019-06-20T16:38:09.264Z,26.62
2019-06-20T16:40:45.921Z,26.91
2019-06-20T16:43:14.548Z,26.61
2019-06-20T16:45:43.331Z,26.57
2019-06-20T16:48:11.985Z,26.86
2019-06-20T16:50:40.803Z,26.58
2019-06-20T16:53:09.310Z,26.17
2019-06-20T16:55:37.834Z,26.34
2019-06-20T16:58:06.457Z,26.31
2019-06-20T17:00:35.212Z,26.10
2019-06-20T17:03:03.974Z,26.11
2019-06-20T17:05:32.499Z,26.02
2019-06-20T17:08:01.205Z,26.02
2019-06-20T17:10:29.684Z,26.13
2019-06-20T17:12:58.395Z,25.85
2019-06-20T17:15:26.952Z,25.87
2019-06-20T17:17:55.494Z,25.84
2019-06-20T17:20:24.242Z,25.83
2019-06-20T17:22:52.817Z,25.58
2019-06-20T17:25:22.006Z,25.56
2019-06-20T17:27:50.576Z,25.37
2019-06-20T17:30:20.551Z,25.21
2019-06-20T17:32:49.098Z,25.25
2019-06-20T17:35:18.009Z,25.25
2019-06-20T17:37:46.544Z,24.93
2019-06-20T17:40:16.595Z,24.74
2019-06-20T17:42:45.170Z,24.59
2019-06-20T17:45:22.517Z,24.72
2019-06-20T17:47:51.637Z,24.77
2019-06-20T17:50:20.605Z,24.56
2019-06-20T17:52:49.165Z,24.37
2019-06-20T17:55:18.199Z,24.84
2019-06-20T17:57:46.615Z,24.36
2019-06-20T18:00:17.688Z,24.27
2019-06-20T18:02:46.155Z,23.93
2019-06-20T18:05:16.132Z,24.07
2019-06-20T18:07:44.709Z,24.58
2019-06-20T18:10:14.196Z,24.71
2019-06-20T18:12:42.692Z,24.78
2019-06-20T18:15:13.030Z,24.95
2019-06-20T18:17:41.574Z,24.83
2019-06-20T18:20:11.754Z,24.67
2019-06-20T18:22:40.287Z,24.67
2019-06-20T18:25:09.620Z,24.57
2019-06-20T18:27:38.376Z,24.01
2019-06-20T18:30:09.716Z,24.09
2019-06-20T18:32:38.395Z,24.23
2019-06-20T18:35:07.737Z,24.10
2019-06-20T18:37:36.380Z,23.81
2019-06-20T18:40:09.879Z,24.09
2019-06-20T18:42:38.917Z,23.86
2019-06-20T18:45:09.456Z,23.60
2019-06-20T18:47:38.579Z,23.22
2019-06-20T18:50:08.266Z,23.59
2019-06-20T18:52:51.051Z,23.59
2019-06-20T18:55:11.757Z,23.33
2019-06-20T18:57:40.494Z,23.31
2019-06-20T19:00:11.465Z,22.63
2019-06-20T19:02:40.587Z,22.54
2019-06-20T19:05:11.082Z,22.32
2019-06-20T19:07:39.973Z,22.35
2019-06-20T19:10:10.726Z,22.35
2019-06-20T19:12:39.739Z,22.05
2019-06-20T19:15:09.314Z,21.88
2019-06-20T19:17:39.654Z,22.04
2019-06-20T19:20:09.110Z,21.91
2019-06-20T19:22:38.266Z,21.84
2019-06-20T19:25:11.347Z,21.61
2019-06-20T19:27:46.280Z,22.00
2019-06-20T19:30:18.280Z,21.58
2019-06-20T19:32:47.043Z,22.05
2019-06-20T19:35:17.316Z,21.41
2019-06-20T19:37:46.435Z,21.67
2019-06-20T19:40:17.087Z,21.49
2019-06-20T19:42:47.464Z,21.46
2019-06-20T19:45:18.325Z,21.79
2019-06-20T19:47:47.737Z,21.62
2019-06-20T19:50:17.727Z,21.52
2019-06-20T19:52:47.021Z,21.22
2019-06-20T19:55:17.582Z,21.56
2019-06-20T19:57:46.389Z,21.11
2019-06-20T20:00:15.806Z,21.10
2019-06-20T20:02:44.682Z,21.12
2019-06-20T20:05:19.564Z,20.81
2019-06-20T20:07:45.674Z,20.84
2019-06-20T20:10:14.821Z,20.87
2019-06-20T20:12:43.930Z,20.87
2019-06-20T20:15:14.108Z,20.90
2019-06-20T20:17:42.944Z,20.81
2019-06-20T20:20:12.263Z,20.58
2019-06-20T20:22:41.219Z,20.45
2019-06-20T20:25:10.508Z,20.59
2019-06-20T20:27:39.310Z,20.58
2019-06-20T20:30:10.924Z,20.72
2019-06-20T20:32:40.119Z,20.78
2019-06-20T20:35:09.104Z,20.46
2019-06-20T20:37:38.180Z,20.37
2019-06-20T20:40:08.724Z,20.43
2019-06-20T20:42:37.498Z,20.38
2019-06-20T20:45:07.947Z,20.33
2019-06-20T20:47:36.631Z,20.30
2019-06-20T20:50:09.288Z,20.45
2019-06-20T20:52:38.016Z,20.46
2019-06-20T20:55:08.294Z,20.52
2019-06-20T20:57:37.230Z,20.62
2019-06-20T21:00:11.846Z,20.52
2019-06-20T21:02:40.385Z,20.41
2019-06-20T21:05:09.189Z,20.21
2019-06-20T21:07:39.239Z,20.24
2019-06-20T21:10:08.421Z,20.29
2019-06-20T21:12:36.960Z,20.20
2019-06-20T21:15:08.509Z,19.97
2019-06-20T21:17:37.094Z,20.09
2019-06-20T21:20:08.890Z,20.11
2019-06-20T21:22:37.502Z,20.04
2019-06-20T21:25:09.106Z,19.92
2019-06-20T21:27:37.695Z,19.78
2019-06-20T21:30:08.019Z,19.83
2019-06-20T21:32:36.682Z,19.75
2019-06-20T21:35:08.172Z,19.61
2019-06-20T21:37:36.661Z,19.69
2019-06-20T21:40:06.987Z,19.55
2019-06-20T21:42:35.487Z,19.43
2019-06-20T21:45:08.700Z,19.12
2019-06-20T21:47:37.197Z,19.21
2019-06-20T21:50:07.631Z,19.10
2019-06-20T21:52:36.265Z,18.97
2019-06-20T21:55:06.734Z,18.76
2019-06-20T21:57:35.335Z,18.88
2019-06-20T22:00:18.592Z,18.61
2019-06-20T22:02:47.032Z,18.48
2019-06-20T22:05:15.905Z,18.33
2019-06-20T22:07:44.465Z,18.31
2019-06-20T22:10:13.374Z,18.32
2019-06-20T22:12:41.800Z,18.35
2019-06-20T22:15:10.608Z,18.03
2019-06-20T22:17:39.214Z,18.28
2019-06-20T22:20:08.202Z,17.99
2019-06-20T22:22:36.647Z,17.80
2019-06-20T22:25:09.107Z,17.87
2019-06-20T22:27:37.729Z,17.97
2019-06-20T22:30:13.282Z,17.75
2019-06-20T22:32:41.696Z,17.66
2019-06-20T22:35:10.569Z,17.53
2019-06-20T22:37:39.168Z,17.24
2019-06-20T22:40:09.542Z,17.08
2019-06-20T22:42:38.141Z,17.13
2019-06-20T22:45:11.352Z,17.18
2019-06-20T22:47:39.901Z,17.44
2019-06-20T22:50:08.879Z,17.44
2019-06-20T22:52:37.501Z,17.39
2019-06-20T22:55:06.975Z,17.60
2019-06-20T22:57:35.417Z,17.43
2019-06-20T23:00:06.943Z,17.59
2019-06-20T23:02:35.439Z,17.59
2019-06-20T23:05:05.416Z,17.31
2019-06-20T23:07:33.856Z,17.27
2019-06-20T23:10:10.423Z,17.42
2019-06-20T23:12:32.526Z,17.39
2019-06-20T23:15:01.001Z,17.42
2019-06-20T23:17:29.504Z,17.30
2019-06-20T23:19:57.942Z,17.20
2019-06-20T23:22:26.404Z,17.06
2019-06-20T23:24:54.852Z,17.01
2019-06-20T23:27:23.273Z,16.90
2019-06-20T23:29:51.725Z,17.26
2019-06-20T23:32:20.165Z,17.28
2019-06-20T23:34:48.599Z,17.32
2019-06-20T23:37:17.232Z,17.27
2019-06-20T23:39:45.767Z,17.21
2019-06-20T23:42:14.180Z,17.23
2019-06-20T23:44:42.781Z,17.29
2019-06-20T23:47:11.214Z,17.06
2019-06-20T23:49:39.645Z,17.10
2019-06-20T23:52:12.236Z,17.05
2019-06-20T23:54:40.748Z,16.94
2019-06-20T23:57:09.206Z,16.82
2019-06-20T23:59:37.668Z,16.85
